createdAt,value
2023-01-07T00:01:36.998Z,95064.41
2023-01-07T00:04:06.515Z,95059.16
2023-01-07T00:06:37.394Z,95063.41
2023-01-07T00:09:07.198Z,95061.66
2023-01-07T00:11:39.392Z,95054.50
2023-01-07T00:14:09.880Z,95046.91
2023-01-07T00:16:38.488Z,95048.16
2023-01-07T00:19:07.617Z,95047.31
2023-01-07T00:21:34.645Z,95039.47
2023-01-07T00:24:04.830Z,95037.13
2023-01-07T00:26:35.732Z,95045.41
2023-01-07T00:29:03.291Z,95034.50
2023-01-07T00:31:36.314Z,95024.16
2023-01-07T00:34:03.348Z,95022.81
2023-01-07T00:36:39.870Z,95026.66
2023-01-07T00:39:10.980Z,95024.84
2023-01-07T00:41:38.459Z,95024.59
2023-01-07T00:44:07.233Z,95026.53
2023-01-07T00:46:34.356Z,95026.09
2023-01-07T00:49:02.168Z,95017.00
2023-01-07T00:51:29.084Z,95007.53
2023-01-07T00:53:55.881Z,95006.84
2023-01-07T00:56:22.669Z,95006.84
2023-01-07T00:58:49.483Z,95006.56
2023-01-07T01:01:16.449Z,95009.88
2023-01-07T01:03:43.341Z,95006.69
2023-01-07T01:06:15.891Z,95001.16
2023-01-07T01:08:45.477Z,95006.41
2023-01-07T01:11:15.211Z,95003.66
2023-01-07T01:13:43.351Z,95003.53
2023-01-07T01:16:17.725Z,94992.66
2023-01-07T01:18:45.809Z,94997.75
2023-01-07T01:21:14.992Z,95010.94
2023-01-07T01:23:42.927Z,95003.22
2023-01-07T01:26:16.934Z,94999.81
2023-01-07T01:28:44.639Z,94999.13
2023-01-07T01:31:11.936Z,94994.88
2023-01-07T01:33:38.719Z,94998.56
2023-01-07T01:36:08.196Z,95001.59
2023-01-07T01:38:35.115Z,94995.44
2023-01-07T01:41:02.194Z,94996.94
2023-01-07T01:43:33.429Z,94999.69
2023-01-07T01:46:22.461Z,95000.78
2023-01-07T01:49:28.598Z,94994.03
2023-01-07T01:52:02.034Z,95003.53
2023-01-07T01:54:29.509Z,94997.50
2023-01-07T01:57:00.292Z,94997.75
2023-01-07T01:59:31.357Z,95000.25
2023-01-07T02:01:58.345Z,94985.78
2023-01-07T02:04:27.532Z,94990.88
2023-01-07T02:07:12.718Z,94995.69
2023-01-07T02:09:39.451Z,94980.41
2023-01-07T02:12:22.159Z,94965.28
2023-01-07T02:15:13.430Z,94973.53
2023-01-07T02:17:56.167Z,94975.03
2023-01-07T02:20:46.927Z,94967.88
2023-01-07T02:24:04.263Z,94972.97
2023-01-07T02:26:58.252Z,94975.19
2023-01-07T02:30:04.925Z,94964.56
2023-01-07T02:32:57.334Z,94951.66
2023-01-07T02:36:06.302Z,94963.06
2023-01-07T02:38:38.793Z,94959.63
2023-01-07T02:41:23.887Z,94951.78
2023-01-07T02:44:01.589Z,94944.19
2023-01-07T02:46:39.164Z,94946.00
2023-01-07T02:49:10.285Z,94935.41
2023-01-07T02:51:40.355Z,94941.31
2023-01-07T02:54:16.842Z,94933.03
2023-01-07T02:57:42.401Z,94918.34
2023-01-07T03:00:39.924Z,94927.81
2023-01-07T03:03:27.045Z,94918.59
2023-01-07T03:06:24.631Z,94908.56
2023-01-07T03:09:12.578Z,94919.59
2023-01-07T03:11:49.714Z,94913.09
2023-01-07T03:14:26.540Z,94910.19
2023-01-07T03:17:03.225Z,94909.25
2023-01-07T03:19:35.710Z,94896.59
2023-01-07T03:22:07.252Z,94897.28
2023-01-07T03:24:34.065Z,94896.19
2023-01-07T03:27:04.516Z,94896.72
2023-01-07T03:29:32.461Z,94889.16
2023-01-07T03:32:08.719Z,94887.91
2023-01-07T03:34:37.559Z,94881.59
2023-01-07T03:37:10.596Z,94873.06
2023-01-07T03:39:38.852Z,94884.03
2023-01-07T03:42:30.277Z,94875.81
2023-01-07T03:44:58.166Z,94869.88
2023-01-07T03:47:25.773Z,94876.06
2023-01-07T03:49:52.489Z,94865.91
2023-01-07T03:52:19.248Z,94858.06
2023-01-07T03:54:46.008Z,94853.91
2023-01-07T03:57:12.749Z,94858.31
2023-01-07T03:59:39.494Z,94854.59
2023-01-07T04:02:06.436Z,94843.88
2023-01-07T04:04:33.366Z,94846.63
2023-01-07T04:07:00.138Z,94832.84
2023-01-07T04:09:26.899Z,94838.38
2023-01-07T04:11:53.788Z,94835.91
2023-01-07T04:14:20.532Z,94838.66
2023-01-07T04:16:47.437Z,94839.44
2023-01-07T04:19:14.210Z,94827.66
2023-01-07T04:21:41.031Z,94825.59
2023-01-07T04:24:08.308Z,94819.09
2023-01-07T04:26:35.083Z,94822.41
2023-01-07T04:29:01.883Z,94816.78
2023-01-07T04:31:28.599Z,94810.56
2023-01-07T04:33:55.499Z,94810.72
2023-01-07T04:36:22.256Z,94809.34
2023-01-07T04:38:49.243Z,94815.13
2023-01-07T04:41:16.180Z,94814.16
2023-01-07T04:43:42.909Z,94814.16
2023-01-07T04:46:09.696Z,94807.97
2023-01-07T04:48:36.514Z,94797.09
2023-01-07T04:51:03.549Z,94794.34
2023-01-07T04:53:30.403Z,94799.16
2023-01-07T04:55:57.174Z,94794.59
2023-01-07T04:58:23.986Z,94788.28
2023-01-07T05:00:52.359Z,94787.16
2023-01-07T05:03:20.040Z,94783.88
2023-01-07T05:05:46.912Z,94792.13
2023-01-07T05:08:13.642Z,94787.16
2023-01-07T05:10:40.402Z,94781.13
2023-01-07T05:13:07.280Z,94777.00
2023-01-07T05:15:34.547Z,94777.56
2023-01-07T05:18:01.315Z,94764.06
2023-01-07T05:20:28.076Z,94778.38
2023-01-07T05:22:54.878Z,94767.66
2023-01-07T05:25:21.635Z,94770.94
2023-01-07T05:27:48.364Z,94771.78
2023-01-07T05:30:15.261Z,94762.41
2023-01-07T05:32:42.464Z,94772.03
2023-01-07T05:35:09.568Z,94777.56
2023-01-07T05:37:36.282Z,94760.91
2023-01-07T05:40:03.092Z,94764.63
2023-01-07T05:42:29.821Z,94762.41
2023-01-07T05:44:56.622Z,94756.13
2023-01-07T05:47:23.459Z,94752.84
2023-01-07T05:49:50.297Z,94749.41
2023-01-07T05:52:17.261Z,94748.72
2023-01-07T05:54:43.983Z,94749.25
2023-01-07T05:57:11.401Z,94750.91
2023-01-07T05:59:38.194Z,94759.41
2023-01-07T06:02:05.066Z,94741.28
2023-01-07T06:04:32.103Z,94753.69
2023-01-07T06:06:58.867Z,94752.97
2023-01-07T06:09:25.603Z,94736.88
2023-01-07T06:11:52.406Z,94742.94
2023-01-07T06:14:19.328Z,94749.53
2023-01-07T06:16:46.059Z,94759.00
2023-01-07T06:19:12.847Z,94750.34
2023-01-07T06:21:39.632Z,94749.53
2023-01-07T06:24:07.760Z,94745.66
2023-01-07T06:26:34.498Z,94731.91
2023-01-07T06:29:01.199Z,94737.69
2023-01-07T06:31:27.974Z,94733.72
2023-01-07T06:33:55.771Z,94720.38
2023-01-07T06:36:22.536Z,94730.25
2023-01-07T06:38:49.271Z,94737.31
2023-01-07T06:41:16.044Z,94714.09
2023-01-07T06:43:42.788Z,94723.44
2023-01-07T06:46:09.686Z,94724.53
2023-01-07T06:48:36.433Z,94718.34
2023-01-07T06:51:03.263Z,94720.91
2023-01-07T06:53:30.089Z,94718.75
2023-01-07T06:55:56.956Z,94724.22
2023-01-07T06:58:23.696Z,94718.97
2023-01-07T07:00:50.500Z,94716.50
2023-01-07T07:03:17.300Z,94716.81
2023-01-07T07:05:44.156Z,94720.09
2023-01-07T07:08:11.462Z,94721.84
2023-01-07T07:10:38.998Z,94721.47
2023-01-07T07:13:05.787Z,94711.59
2023-01-07T07:15:32.535Z,94719.81
2023-01-07T07:17:59.251Z,94713.91
2023-01-07T07:20:25.979Z,94708.81
2023-01-07T07:22:52.695Z,94709.66
2023-01-07T07:25:19.725Z,94720.66
2023-01-07T07:27:47.437Z,94719.13
2023-01-07T07:30:15.790Z,94709.78
2023-01-07T07:32:43.232Z,94715.94
2023-01-07T07:35:11.092Z,94711.03
2023-01-07T07:37:38.367Z,94718.44
2023-01-07T07:40:06.507Z,94704.59
2023-01-07T07:43:10.248Z,94719.00
2023-01-07T07:45:20.184Z,94703.38
2023-01-07T07:47:47.308Z,94708.91
2023-01-07T07:50:14.072Z,94702.13
2023-01-07T07:52:40.985Z,94706.13
2023-01-07T07:55:20.175Z,94696.47
2023-01-07T07:57:57.041Z,94705.16
2023-01-07T08:00:24.690Z,94703.19
2023-01-07T08:02:51.440Z,94698.69
2023-01-07T08:05:18.326Z,94689.88
2023-01-07T08:07:45.087Z,94698.88
2023-01-07T08:10:11.842Z,94682.63
2023-01-07T08:12:39.565Z,94693.06
2023-01-07T08:15:08.406Z,94684.75
2023-01-07T08:17:36.556Z,94685.44
2023-01-07T08:20:08.422Z,94681.56
2023-01-07T08:22:35.634Z,94676.03
2023-01-07T08:25:03.098Z,94670.81
2023-01-07T08:27:30.116Z,94667.75
2023-01-07T08:29:57.268Z,94679.94
2023-01-07T08:32:24.159Z,94663.31
2023-01-07T08:34:50.929Z,94670.28
2023-01-07T08:37:17.680Z,94675.03
2023-01-07T08:39:44.514Z,94682.03
2023-01-07T08:42:11.259Z,94688.47
2023-01-07T08:44:37.995Z,94663.75
2023-01-07T08:47:04.788Z,94677.19
2023-01-07T08:49:31.960Z,94669.22
2023-01-07T08:51:58.721Z,94677.97
2023-01-07T08:54:25.474Z,94679.38
2023-01-07T08:56:52.237Z,94676.19
2023-01-07T08:59:19.038Z,94674.81
2023-01-07T09:01:45.958Z,94677.28
2023-01-07T09:04:12.799Z,94670.44
2023-01-07T09:06:39.552Z,94661.22
2023-01-07T09:09:06.510Z,94657.94
2023-01-07T09:11:33.277Z,94665.09
2023-01-07T09:14:00.028Z,94672.59
2023-01-07T09:16:26.776Z,94676.41
2023-01-07T09:18:53.506Z,94678.34
2023-01-07T09:21:20.293Z,94677.50
2023-01-07T09:23:47.029Z,94678.44
2023-01-07T09:26:13.852Z,94675.25
2023-01-07T09:28:40.596Z,94683.81
2023-01-07T09:31:08.129Z,94678.06
2023-01-07T09:33:35.126Z,94670.78
2023-01-07T09:36:01.909Z,94677.31
2023-01-07T09:38:28.806Z,94684.34
2023-01-07T09:40:55.847Z,94681.84
2023-01-07T09:44:00.533Z,94679.38
2023-01-07T09:46:20.843Z,94680.38
2023-01-07T09:48:54.129Z,94670.66
2023-01-07T09:51:39.124Z,94683.50
2023-01-07T09:54:37.303Z,94670.84
2023-01-07T09:57:04.978Z,94679.91
2023-01-07T09:59:32.386Z,94681.56
2023-01-07T10:02:32.100Z,94677.75
2023-01-07T10:05:35.789Z,94674.44
2023-01-07T10:08:32.538Z,94680.38
2023-01-07T10:11:35.032Z,94678.75
2023-01-07T10:14:37.068Z,94678.34
2023-01-07T10:17:22.037Z,94677.50
2023-01-07T10:20:10.004Z,94667.06
2023-01-07T10:22:54.001Z,94660.63
2023-01-07T10:25:25.614Z,94654.25
2023-01-07T10:27:58.934Z,94643.53
2023-01-07T10:30:30.543Z,94629.56
2023-01-07T10:33:15.975Z,94631.28
2023-01-07T10:35:42.891Z,94630.16
2023-01-07T10:38:19.213Z,94628.22
2023-01-07T10:40:51.123Z,94621.81
2023-01-07T10:43:38.891Z,94621.81
2023-01-07T10:46:17.720Z,94631.31
2023-01-07T10:49:05.843Z,94621.81
2023-01-07T10:52:11.427Z,94628.66
2023-01-07T10:54:52.720Z,94616.00
2023-01-07T10:57:26.209Z,94618.75
2023-01-07T10:59:57.816Z,94606.28
2023-01-07T11:02:27.795Z,94605.94
2023-01-07T11:04:59.271Z,94599.97
2023-01-07T11:07:54.047Z,94602.94
2023-01-07T11:10:29.273Z,94606.09
2023-01-07T11:13:01.862Z,94583.97
2023-01-07T11:15:35.342Z,94585.41
2023-01-07T11:18:11.760Z,94588.75
2023-01-07T11:20:46.324Z,94596.22
2023-01-07T11:23:29.061Z,94592.66
2023-01-07T11:26:10.943Z,94598.50
2023-01-07T11:28:47.518Z,94590.78
2023-01-07T11:31:14.252Z,94595.47
2023-01-07T11:34:01.957Z,94590.47
2023-01-07T11:36:41.895Z,94569.22
2023-01-07T11:39:19.982Z,94559.28
2023-01-07T11:42:35.748Z,94558.59
2023-01-07T11:46:19.184Z,94558.19
2023-01-07T11:48:54.776Z,94532.00
2023-01-07T11:51:23.206Z,94538.72
2023-01-07T11:53:49.864Z,94542.47
2023-01-07T11:56:28.177Z,94541.34
2023-01-07T11:59:15.682Z,94539.09
2023-01-07T12:01:53.637Z,94527.22
2023-01-07T12:04:33.686Z,94522.34
2023-01-07T12:07:15.671Z,94511.88
2023-01-07T12:09:44.855Z,94501.00
2023-01-07T12:12:34.748Z,94502.47
2023-01-07T12:15:06.920Z,94500.50
2023-01-07T12:17:35.404Z,94498.78
2023-01-07T12:20:39.532Z,94495.66
2023-01-07T12:23:22.334Z,94491.22
2023-01-07T12:26:08.979Z,94481.94
2023-01-07T12:29:37.733Z,94480.34
2023-01-07T12:32:31.713Z,94478.81
2023-01-07T12:35:14.356Z,94483.19
2023-01-07T12:38:03.551Z,94467.94
2023-01-07T12:40:41.987Z,94457.84
2023-01-07T12:43:20.466Z,94468.75
2023-01-07T12:46:00.398Z,94464.31
2023-01-07T12:48:38.874Z,94458.81
2023-01-07T12:51:17.220Z,94450.38
2023-01-07T12:54:13.092Z,94452.31
2023-01-07T12:56:49.588Z,94452.47
2023-01-07T12:59:46.041Z,94445.56
2023-01-07T13:02:19.912Z,94439.59
2023-01-07T13:05:12.863Z,94439.00
2023-01-07T13:08:17.912Z,94430.28
2023-01-07T13:11:14.767Z,94428.84
2023-01-07T13:13:48.809Z,94406.81
2023-01-07T13:16:15.684Z,94413.22
2023-01-07T13:18:42.488Z,94408.28
2023-01-07T13:21:11.282Z,94408.78
2023-01-07T13:23:56.596Z,94410.84
2023-01-07T13:26:49.290Z,94409.22
2023-01-07T13:29:47.142Z,94397.78
2023-01-07T13:32:52.637Z,94396.16
2023-01-07T13:36:03.436Z,94400.09
2023-01-07T13:39:05.050Z,94393.69
2023-01-07T13:42:22.084Z,94394.50
2023-01-07T13:45:02.375Z,94396.31
2023-01-07T13:47:42.312Z,94397.63
2023-01-07T13:50:37.835Z,94389.09
2023-01-07T13:53:28.117Z,94396.97
2023-01-07T13:56:17.557Z,94393.81
2023-01-07T13:58:50.073Z,94398.09
2023-01-07T14:01:19.557Z,94392.53
2023-01-07T14:04:06.289Z,94408.59
2023-01-07T14:06:39.502Z,94387.78
2023-01-07T14:09:13.533Z,94386.97
2023-01-07T14:12:29.941Z,94379.75
2023-01-07T14:15:37.306Z,94369.22
2023-01-07T14:18:26.304Z,94375.50
2023-01-07T14:21:11.292Z,94381.72
2023-01-07T14:24:04.927Z,94377.31
2023-01-07T14:26:43.800Z,94376.81
2023-01-07T14:29:40.959Z,94373.03
2023-01-07T14:32:30.936Z,94368.56
2023-01-07T14:35:03.540Z,94377.72
2023-01-07T14:37:45.230Z,94374.44
2023-01-07T14:40:27.331Z,94381.66
2023-01-07T14:42:55.631Z,94374.78
2023-01-07T14:45:37.124Z,94374.94
2023-01-07T14:48:12.777Z,94383.59
2023-01-07T14:51:00.639Z,94371.94
2023-01-07T14:54:13.287Z,94379.97
2023-01-07T14:57:10.204Z,94378.66
2023-01-07T15:00:06.215Z,94372.91
2023-01-07T15:03:18.728Z,94383.31
2023-01-07T15:06:26.866Z,94385.44
2023-01-07T15:09:30.484Z,94386.28
2023-01-07T15:12:18.667Z,94373.34
2023-01-07T15:15:12.512Z,94386.06
2023-01-07T15:17:40.165Z,94386.41
2023-01-07T15:20:10.349Z,94384.09
2023-01-07T15:22:55.607Z,94389.81
2023-01-07T15:25:45.552Z,94389.09
2023-01-07T15:28:21.108Z,94396.72
2023-01-07T15:31:04.870Z,94389.84
2023-01-07T15:33:53.279Z,94384.34
2023-01-07T15:36:20.221Z,94379.88
2023-01-07T15:38:53.896Z,94392.94
2023-01-07T15:41:36.606Z,94382.75
2023-01-07T15:44:41.270Z,94375.63
2023-01-07T15:47:43.444Z,94376.69
2023-01-07T15:50:24.128Z,94378.28
2023-01-07T15:53:00.156Z,94374.94
2023-01-07T15:55:35.010Z,94370.81
2023-01-07T15:58:12.447Z,94384.34
2023-01-07T16:00:39.369Z,94374.63
2023-01-07T16:03:07.757Z,94371.88
2023-01-07T16:05:38.031Z,94374.78
2023-01-07T16:08:05.801Z,94374.84
2023-01-07T16:10:35.405Z,94374.06
2023-01-07T16:13:06.134Z,94379.06
2023-01-07T16:15:41.383Z,94381.31
2023-01-07T16:18:11.357Z,94385.06
2023-01-07T16:20:51.487Z,94381.66
2023-01-07T16:23:31.066Z,94366.63
2023-01-07T16:26:07.737Z,94382.84
2023-01-07T16:28:41.727Z,94390.56
2023-01-07T16:31:13.655Z,94380.41
2023-01-07T16:33:42.507Z,94387.28
2023-01-07T16:36:27.110Z,94386.50
2023-01-07T16:38:58.954Z,94383.91
2023-01-07T16:41:29.893Z,94378.84
2023-01-07T16:44:00.399Z,94385.16
2023-01-07T16:46:33.261Z,94392.84
2023-01-07T16:49:11.936Z,94390.94
2023-01-07T16:52:06.908Z,94388.19
2023-01-07T16:54:40.109Z,94387.38
2023-01-07T16:57:12.541Z,94387.38
2023-01-07T16:59:55.480Z,94379.56
2023-01-07T17:02:37.499Z,94387.38
2023-01-07T17:05:18.928Z,94382.84
2023-01-07T17:08:03.142Z,94379.41
2023-01-07T17:10:37.563Z,94374.75
2023-01-07T17:13:24.208Z,94383.50
2023-01-07T17:15:51.237Z,94369.50
2023-01-07T17:18:18.028Z,94381.00
2023-01-07T17:20:52.827Z,94377.16
2023-01-07T17:23:27.940Z,94387.28
2023-01-07T17:26:17.566Z,94395.19
2023-01-07T17:28:52.756Z,94370.81
2023-01-07T17:31:20.221Z,94385.31
2023-01-07T17:33:47.400Z,94388.72
2023-01-07T17:36:19.067Z,94389.50
2023-01-07T17:38:46.405Z,94379.19
2023-01-07T17:41:38.688Z,94367.41
2023-01-07T17:44:08.155Z,94381.50
2023-01-07T17:46:38.953Z,94380.25
2023-01-07T17:49:05.824Z,94377.91
2023-01-07T17:51:38.531Z,94377.47
2023-01-07T17:54:06.886Z,94362.91
2023-01-07T17:56:34.194Z,94370.03
2023-01-07T17:59:01.019Z,94374.91
2023-01-07T18:01:28.036Z,94367.25
2023-01-07T18:03:54.904Z,94370.22
2023-01-07T18:06:25.538Z,94367.44
2023-01-07T18:08:53.106Z,94367.94
2023-01-07T18:11:44.187Z,94362.63
2023-01-07T18:14:14.826Z,94364.06
2023-01-07T18:16:43.148Z,94357.50
2023-01-07T18:19:14.640Z,94366.75
2023-01-07T18:21:41.807Z,94370.78
2023-01-07T18:24:20.381Z,94373.84
2023-01-07T18:26:47.691Z,94369.41
2023-01-07T18:29:14.760Z,94370.72
2023-01-07T18:31:44.027Z,94370.41
2023-01-07T18:34:14.352Z,94372.31
2023-01-07T18:36:41.644Z,94369.13
2023-01-07T18:39:11.002Z,94372.81
2023-01-07T18:41:39.851Z,94367.03
2023-01-07T18:44:06.948Z,94364.81
2023-01-07T18:46:33.953Z,94363.97
2023-01-07T18:49:00.917Z,94367.91
2023-01-07T18:51:27.756Z,94356.84
2023-01-07T18:53:54.450Z,94354.84
2023-01-07T18:56:21.215Z,94366.63
2023-01-07T18:58:48.290Z,94362.63
2023-01-07T19:01:15.146Z,94364.88
2023-01-07T19:03:42.154Z,94367.03
2023-01-07T19:06:10.518Z,94368.06
2023-01-07T19:08:38.147Z,94362.34
2023-01-07T19:11:09.869Z,94372.47
2023-01-07T19:13:36.914Z,94368.47
2023-01-07T19:16:08.640Z,94364.25
2023-01-07T19:18:35.617Z,94357.06
2023-01-07T19:21:07.746Z,94387.25
2023-01-07T19:23:34.725Z,94372.13
2023-01-07T19:26:04.910Z,94374.88
2023-01-07T19:28:32.885Z,94355.34
2023-01-07T19:31:00.133Z,94361.56
2023-01-07T19:33:26.905Z,94357.91
2023-01-07T19:36:11.716Z,94367.81
2023-01-07T19:38:48.860Z,94365.94
2023-01-07T19:41:19.498Z,94352.97
2023-01-07T19:43:47.364Z,94356.38
2023-01-07T19:46:15.811Z,94359.56
2023-01-07T19:48:43.046Z,94360.16
2023-01-07T19:51:10.979Z,94361.09
2023-01-07T19:53:38.323Z,94372.06
2023-01-07T19:56:11.777Z,94363.59
2023-01-07T19:58:40.341Z,94367.34
2023-01-07T20:01:11.812Z,94370.06
2023-01-07T20:03:39.177Z,94374.41
2023-01-07T20:06:15.039Z,94372.28
2023-01-07T20:08:42.026Z,94356.53
2023-01-07T20:11:09.290Z,94355.34
2023-01-07T20:13:37.915Z,94365.94
2023-01-07T20:16:14.267Z,94367.00
2023-01-07T20:18:46.734Z,94354.63
2023-01-07T20:21:16.594Z,94354.41
2023-01-07T20:23:44.311Z,94353.00
2023-01-07T20:26:16.217Z,94353.22
2023-01-07T20:28:43.824Z,94341.47
2023-01-07T20:31:14.635Z,94335.56
2023-01-07T20:33:42.841Z,94346.53
2023-01-07T20:36:16.307Z,94339.81
2023-01-07T20:38:44.685Z,94355.81
2023-01-07T20:41:15.727Z,94344.28
2023-01-07T20:43:42.594Z,94336.75
2023-01-07T20:46:10.641Z,94334.16
2023-01-07T20:48:37.993Z,94319.09
2023-01-07T20:51:09.121Z,94315.56
2023-01-07T20:53:37.130Z,94317.56
2023-01-07T20:56:05.145Z,94326.63
2023-01-07T20:58:34.695Z,94320.50
2023-01-07T21:01:11.462Z,94316.16
2023-01-07T21:03:39.549Z,94319.31
2023-01-07T21:06:09.929Z,94312.50
2023-01-07T21:08:37.992Z,94309.94
2023-01-07T21:11:10.971Z,94309.22
2023-01-07T21:13:37.716Z,94304.84
2023-01-07T21:16:05.682Z,94293.31
2023-01-07T21:18:33.932Z,94296.00
2023-01-07T21:21:02.648Z,94302.16
2023-01-07T21:23:29.378Z,94295.47
2023-01-07T21:25:56.205Z,94295.31
2023-01-07T21:28:22.907Z,94289.81
2023-01-07T21:30:50.196Z,94306.03
2023-01-07T21:33:17.143Z,94294.28
2023-01-07T21:35:43.967Z,94291.09
2023-01-07T21:38:10.735Z,94305.56
2023-01-07T21:40:39.420Z,94308.97
2023-01-07T21:43:06.777Z,94315.31
2023-01-07T21:45:33.738Z,94314.75
2023-01-07T21:48:00.586Z,94305.09
2023-01-07T21:50:27.371Z,94305.22
2023-01-07T21:52:54.097Z,94298.84
2023-01-07T21:55:20.933Z,94292.25
2023-01-07T21:57:47.695Z,94287.78
2023-01-07T22:00:15.355Z,94296.03
2023-01-07T22:02:42.104Z,94297.44
2023-01-07T22:05:09.509Z,94297.91
2023-01-07T22:07:36.236Z,94292.97
2023-01-07T22:10:03.438Z,94286.25
2023-01-07T22:12:30.224Z,94288.63
2023-01-07T22:14:57.147Z,94294.50
2023-01-07T22:17:24.576Z,94287.91
2023-01-07T22:19:51.419Z,94289.78
2023-01-07T22:22:20.773Z,94292.75
2023-01-07T22:24:47.569Z,94283.09
2023-01-07T22:27:14.598Z,94283.31
2023-01-07T22:29:42.285Z,94270.63
2023-01-07T22:32:09.085Z,94271.09
2023-01-07T22:34:35.851Z,94252.97
2023-01-07T22:37:11.286Z,94256.50
2023-01-07T22:39:51.921Z,94257.69
2023-01-07T22:42:33.355Z,94260.59
2023-01-07T22:45:10.766Z,94261.09
2023-01-07T22:47:42.194Z,94262.97
2023-01-07T22:50:10.244Z,94260.00
2023-01-07T22:52:38.140Z,94270.84
2023-01-07T22:55:05.878Z,94259.09
2023-01-07T22:57:34.560Z,94255.56
2023-01-07T23:00:01.284Z,94261.66
2023-01-07T23:02:28.528Z,94261.19
2023-01-07T23:04:55.231Z,94260.47
2023-01-07T23:07:21.976Z,94266.13
2023-01-07T23:09:50.763Z,94253.19
2023-01-07T23:12:18.391Z,94253.66
2023-01-07T23:14:45.323Z,94257.66
2023-01-07T23:17:12.180Z,94259.28
2023-01-07T23:19:38.960Z,94248.22
2023-01-07T23:22:05.790Z,94248.94
2023-01-07T23:24:32.528Z,94250.00
2023-01-07T23:26:59.476Z,94240.47
2023-01-07T23:29:26.415Z,94224.50
2023-01-07T23:31:53.214Z,94215.78
2023-01-07T23:34:20.144Z,94211.31
2023-01-07T23:36:46.865Z,94205.56
2023-01-07T23:39:13.738Z,94204.25
2023-01-07T23:41:40.635Z,94204.50
2023-01-07T23:44:07.501Z,94190.16
2023-01-07T23:46:34.313Z,94196.75
2023-01-07T23:49:01.101Z,94194.63
2023-01-07T23:51:27.943Z,94191.56
2023-01-07T23:53:54.813Z,94188.72
2023-01-07T23:56:22.265Z,94197.44
2023-01-07T23:58:50.083Z,94178.50
